Time;durP1;ratioP1;P1;durP2;ratioP2;P2;SDS_P1;SDS_P2;PMS_P1;PMS_P2;Temp;Humidity;BMP_temperature;BMP_pressure;BME280_temperature;BME280_humidity;BME280_pressure;Samples;Min_cycle;Max_cycle;Signal;HPM_P1;HPM_P2
2023/03/02 00:02:16;;;;;;;8.83;8.03;;;0.10;99.90;;;;;;5033065;28;20250;-65
2023/03/02 00:04:49;;;;;;;8.70;8.07;;;0.00;99.90;;;;;;5033409;28;20187;-65
2023/03/02 00:07:22;;;;;;;8.50;8.00;;;0.00;99.90;;;;;;5032878;28;20175;-65
2023/03/02 00:09:48;;;;;;;9.13;8.40;;;0.00;99.90;;;;;;5032786;28;20655;-65
2023/03/02 00:12:14;;;;;;;9.00;8.13;;;0.00;99.90;;;;;;5032104;28;20199;-65
2023/03/02 00:14:40;;;;;;;8.37;7.77;;;0.00;99.90;;;;;;5032959;28;20171;-65
2023/03/02 00:17:09;;;;;;;8.27;7.67;;;-0.10;99.90;;;;;;5032950;28;20548;-65
2023/03/02 00:19:35;;;;;;;8.50;7.90;;;-0.10;99.90;;;;;;5033158;28;20178;-64
2023/03/02 00:22:01;;;;;;;10.20;9.40;;;-0.10;99.90;;;;;;5032494;28;20172;-64
2023/03/02 00:24:26;;;;;;;13.47;9.00;;;-0.10;99.90;;;;;;5032839;28;20186;-65
2023/03/02 00:26:52;;;;;;;9.67;8.97;;;0.00;99.90;;;;;;5032639;28;20191;-65
2023/03/02 00:29:18;;;;;;;9.07;8.40;;;0.00;99.90;;;;;;5032369;28;20179;-65
2023/03/02 00:31:43;;;;;;;9.10;8.50;;;0.00;99.90;;;;;;5032797;28;20262;-64
2023/03/02 00:34:09;;;;;;;8.63;7.97;;;0.00;99.90;;;;;;5032546;28;20194;-65
2023/03/02 00:36:34;;;;;;;10.07;8.67;;;0.00;99.90;;;;;;5032396;28;20560;-64
2023/03/02 00:39:00;;;;;;;8.90;8.20;;;0.00;99.90;;;;;;5032420;28;20214;-65
2023/03/02 00:41:26;;;;;;;8.23;7.67;;;-0.10;99.90;;;;;;5032305;28;20176;-65
2023/03/02 00:43:51;;;;;;;8.53;7.93;;;-0.10;99.90;;;;;;5031918;28;20204;-65
2023/03/02 00:46:21;;;;;;;9.67;9.07;;;-0.10;99.90;;;;;;5032640;28;20207;-65
2023/03/02 00:48:47;;;;;;;8.73;8.23;;;-0.10;99.90;;;;;;5032337;28;20187;-65
2023/03/02 00:51:14;;;;;;;8.63;8.13;;;-0.30;99.90;;;;;;5031959;28;20178;-65
2023/03/02 00:53:39;;;;;;;7.93;7.53;;;-0.30;99.90;;;;;;5032158;28;20207;-65
2023/03/02 00:56:05;;;;;;;8.20;7.60;;;-0.40;99.90;;;;;;5032036;28;20241;-65
2023/03/02 00:58:32;;;;;;;7.50;6.80;;;-0.50;99.90;;;;;;5032200;28;20592;-65
2023/03/02 01:00:58;;;;;;;17.40;7.77;;;-0.50;99.90;;;;;;5031915;28;20554;-65
2023/03/02 01:03:24;;;;;;;7.87;7.47;;;-0.60;99.90;;;;;;5031863;28;20241;-65
2023/03/02 01:05:55;;;;;;;8.23;7.73;;;-0.60;99.90;;;;;;5032071;28;20211;-65
2023/03/02 01:08:21;;;;;;;9.80;8.87;;;-0.70;99.90;;;;;;5031892;28;20199;-64
2023/03/02 01:10:47;;;;;;;8.57;7.83;;;-0.80;99.90;;;;;;5030574;28;20187;-65
2023/03/02 01:13:13;;;;;;;8.50;8.07;;;-0.80;99.90;;;;;;5031694;28;20191;-64
2023/03/02 01:15:38;;;;;;;10.57;9.77;;;-0.90;99.90;;;;;;5031807;28;20195;-65
2023/03/02 01:18:04;;;;;;;14.50;10.03;;;-0.90;99.90;;;;;;5031655;28;20175;-65
2023/03/02 01:20:29;;;;;;;10.50;9.60;;;-1.00;99.90;;;;;;5031497;28;20729;-65
2023/03/02 01:22:56;;;;;;;9.20;8.47;;;-1.00;99.90;;;;;;5030474;28;20613;-64
2023/03/02 01:25:21;;;;;;;10.10;9.20;;;-1.10;99.90;;;;;;5031813;28;20554;-64
2023/03/02 01:27:47;;;;;;;9.03;8.53;;;-1.10;99.90;;;;;;5031788;28;20230;-64
2023/03/02 01:30:13;;;;;;;9.77;8.77;;;-1.10;99.90;;;;;;5031637;28;20591;-64
2023/03/02 01:32:38;;;;;;;9.13;8.67;;;-1.10;99.90;;;;;;5031461;28;20207;-65
2023/03/02 01:35:05;;;;;;;9.40;8.60;;;-1.10;99.90;;;;;;5031673;28;20187;-65
2023/03/02 01:37:30;;;;;;;14.47;13.43;;;-1.10;99.90;;;;;;5031557;28;20187;-65
2023/03/02 01:39:56;;;;;;;8.00;7.60;;;-1.00;99.90;;;;;;5031191;28;20608;-65
2023/03/02 01:42:22;;;;;;;8.07;7.53;;;-1.00;99.90;;;;;;5031405;28;20245;-65
2023/03/02 01:44:56;;;;;;;7.53;7.23;;;-1.00;99.90;;;;;;5031893;28;20305;-64
2023/03/02 01:47:27;;;;;;;8.63;8.03;;;-0.90;99.90;;;;;;5031649;28;20184;-64
2023/03/02 01:50:00;;;;;;;10.57;9.00;;;-0.90;99.90;;;;;;5031209;28;20171;-64
2023/03/02 01:52:28;;;;;;;8.43;7.93;;;-0.90;99.90;;;;;;5031673;28;20199;-64
2023/03/02 01:54:57;;;;;;;7.93;7.53;;;-0.80;99.90;;;;;;5031002;28;20548;-64
2023/03/02 01:57:29;;;;;;;8.87;8.17;;;-0.80;99.90;;;;;;5031664;28;20667;-64
2023/03/02 01:59:59;;;;;;;9.47;8.57;;;-0.80;99.90;;;;;;5030933;28;20627;-64
2023/03/02 02:02:26;;;;;;;8.17;7.77;;;-0.80;99.90;;;;;;5031531;28;20206;-64
2023/03/02 02:04:53;;;;;;;8.00;7.50;;;-0.80;99.90;;;;;;5066453;22;20710;-63
2023/03/02 02:07:19;;;;;;;8.63;8.03;;;-0.70;99.90;;;;;;5051313;28;20224;-64
2023/03/02 02:09:50;;;;;;;8.53;7.73;;;-0.70;99.90;;;;;;5043780;28;20254;-64
2023/03/02 02:12:20;;;;;;;8.73;7.97;;;-0.70;99.90;;;;;;5030969;28;20175;-64
2023/03/02 02:14:46;;;;;;;8.77;8.13;;;-0.60;99.90;;;;;;5030943;28;20356;-64
2023/03/02 02:17:13;;;;;;;9.83;9.07;;;-0.50;99.90;;;;;;5032395;28;20195;-63
2023/03/02 02:19:44;;;;;;;9.40;8.63;;;-0.50;99.90;;;;;;5037396;28;20647;-64
2023/03/02 02:22:10;;;;;;;8.77;8.27;;;-0.50;99.90;;;;;;5050809;28;20600;-63
2023/03/02 02:24:42;;;;;;;8.57;8.07;;;-0.50;99.90;;;;;;5043722;28;20210;-63
2023/03/02 02:27:09;;;;;;;8.20;7.73;;;-0.50;99.90;;;;;;5030957;28;20203;-63
2023/03/02 02:29:44;;;;;;;8.97;8.33;;;-0.50;99.90;;;;;;5036783;28;20182;-63
2023/03/02 02:32:25;;;;;;;7.87;7.40;;;-0.50;99.90;;;;;;5050806;28;20182;-63
2023/03/02 02:34:56;;;;;;;8.27;7.63;;;-0.50;99.90;;;;;;5043794;28;20289;-63
2023/03/02 02:37:31;;;;;;;7.53;7.23;;;-0.50;99.90;;;;;;5034800;28;20171;-64
2023/03/02 02:39:58;;;;;;;7.50;7.10;;;-0.50;99.90;;;;;;5042173;28;20274;-64
2023/03/02 02:42:28;;;;;;;9.10;8.50;;;-0.50;99.90;;;;;;5054584;28;20171;-64
2023/03/02 02:44:57;;;;;;;8.47;8.00;;;-0.40;99.90;;;;;;5046857;28;20238;-64
2023/03/02 02:47:23;;;;;;;8.57;7.97;;;-0.50;99.90;;;;;;5035290;28;20168;-64
2023/03/02 02:49:52;;;;;;;8.73;8.03;;;-0.50;99.90;;;;;;5039953;28;20175;-64
2023/03/02 02:52:22;;;;;;;11.97;8.37;;;-0.50;99.90;;;;;;5054344;28;20191;-64
2023/03/02 02:54:49;;;;;;;13.07;9.10;;;-0.40;99.90;;;;;;5052692;28;20201;-64
2023/03/02 02:57:17;;;;;;;9.17;8.57;;;-0.40;99.90;;;;;;5054256;28;20254;-64
2023/03/02 02:59:48;;;;;;;10.03;9.07;;;-0.50;99.90;;;;;;5044916;28;20483;-64
2023/03/02 03:02:19;;;;;;;10.60;9.60;;;-0.50;99.90;;;;;;5033705;28;20179;-64
2023/03/02 03:04:45;;;;;;;9.20;8.53;;;-0.50;99.90;;;;;;5040374;28;20214;-64
2023/03/02 03:07:17;;;;;;;8.67;8.17;;;-0.50;99.90;;;;;;5051690;28;20167;-64
2023/03/02 03:09:42;;;;;;;9.50;8.90;;;-0.50;99.90;;;;;;5054364;28;20167;-63
2023/03/02 03:12:19;;;;;;;9.87;9.13;;;-0.50;99.90;;;;;;5053203;28;20309;-64
2023/03/02 03:14:46;;;;;;;9.50;8.80;;;-0.50;99.90;;;;;;5033555;28;20393;-64
2023/03/02 03:17:12;;;;;;;10.20;9.17;;;-0.50;99.90;;;;;;5051543;28;20309;-64
2023/03/02 03:19:40;;;;;;;11.53;10.63;;;-0.60;99.90;;;;;;5053907;28;20213;-63
2023/03/02 03:22:06;;;;;;;11.07;10.33;;;-0.60;99.90;;;;;;5037209;28;20546;-62
2023/03/02 03:24:33;;;;;;;9.97;9.10;;;-0.70;99.90;;;;;;5034221;28;20266;-64
2023/03/02 03:27:04;;;;;;;9.00;8.20;;;-0.70;99.90;;;;;;5048286;28;20170;-64
2023/03/02 03:29:30;;;;;;;9.40;8.80;;;-0.60;99.90;;;;;;5053507;28;20254;-64
2023/03/02 03:31:56;;;;;;;9.87;9.23;;;-0.70;99.90;;;;;;5039282;28;20253;-64
2023/03/02 03:34:23;;;;;;;9.30;8.57;;;-0.70;99.90;;;;;;5033497;28;20192;-64
2023/03/02 03:36:48;;;;;;;8.57;8.03;;;-0.70;99.90;;;;;;5034804;28;20229;-64
2023/03/02 03:39:15;;;;;;;8.40;7.90;;;-0.70;99.90;;;;;;5032414;28;20575;-64
2023/03/02 03:41:42;;;;;;;9.30;8.67;;;-0.60;99.90;;;;;;5034955;28;20176;-64
2023/03/02 03:44:08;;;;;;;8.80;8.30;;;-0.60;99.90;;;;;;5051976;28;20198;-64
2023/03/02 03:46:34;;;;;;;10.27;9.47;;;-0.60;99.90;;;;;;5050010;28;20230;-65
2023/03/02 03:49:00;;;;;;;10.40;9.37;;;-0.60;99.90;;;;;;5052897;28;20167;-64
2023/03/02 03:51:26;;;;;;;10.20;9.43;;;-0.60;99.90;;;;;;5051358;28;20175;-64
2023/03/02 03:54:01;;;;;;;9.20;8.60;;;-0.50;99.90;;;;;;5053466;28;20591;-64
2023/03/02 03:56:28;;;;;;;8.77;8.20;;;-0.50;99.90;;;;;;5043837;28;20297;-64
2023/03/02 03:59:05;;;;;;;8.27;7.77;;;-0.50;99.90;;;;;;5033579;28;20214;-64
2023/03/02 04:01:33;;;;;;;9.00;8.07;;;-0.60;99.90;;;;;;5042232;28;20177;-64
2023/03/02 04:03:59;;;;;;;8.77;8.17;;;-0.60;99.90;;;;;;5044905;28;20211;-65
2023/03/02 04:06:25;;;;;;;8.47;7.93;;;-0.60;99.90;;;;;;5032842;28;20676;-63
2023/03/02 04:08:51;;;;;;;9.50;8.73;;;-0.60;99.90;;;;;;5038637;28;20179;-63
2023/03/02 04:11:16;;;;;;;8.73;8.00;;;-0.70;99.90;;;;;;5052558;28;20171;-64
2023/03/02 04:13:42;;;;;;;9.93;9.00;;;-0.70;99.90;;;;;;5048590;28;20199;-63
2023/03/02 04:16:08;;;;;;;8.27;7.87;;;-0.70;99.90;;;;;;5032711;28;20183;-63
2023/03/02 04:18:33;;;;;;;9.17;8.57;;;-0.70;99.90;;;;;;5034518;28;20266;-64
2023/03/02 04:20:59;;;;;;;8.57;7.93;;;-0.80;99.90;;;;;;5052155;28;20175;-64
2023/03/02 04:23:24;;;;;;;9.60;8.77;;;-0.80;99.90;;;;;;5051985;28;20198;-64
2023/03/02 04:25:50;;;;;;;10.23;9.43;;;-0.70;99.90;;;;;;5031215;28;20637;-64
2023/03/02 04:28:15;;;;;;;11.43;8.07;;;-0.70;99.90;;;;;;5032643;28;20206;-64
2023/03/02 04:30:41;;;;;;;9.20;8.43;;;-0.80;99.90;;;;;;5050938;28;20175;-65
2023/03/02 04:33:07;;;;;;;9.20;8.30;;;-0.80;99.90;;;;;;5035564;28;20191;-64
2023/03/02 04:35:33;;;;;;;9.50;8.73;;;-0.80;99.90;;;;;;5032631;28;20194;-64
2023/03/02 04:37:59;;;;;;;8.93;8.27;;;-0.80;99.90;;;;;;5046728;28;20540;-64
2023/03/02 04:40:24;;;;;;;8.83;8.13;;;-0.80;99.90;;;;;;5052084;28;20171;-65
2023/03/02 04:42:50;;;;;;;9.03;8.43;;;-0.80;99.90;;;;;;5038749;28;20212;-64
2023/03/02 04:45:16;;;;;;;9.40;8.70;;;-0.90;99.90;;;;;;5032489;28;20199;-64
2023/03/02 04:47:41;;;;;;;9.50;8.73;;;-0.90;99.90;;;;;;5043482;28;20640;-63
2023/03/02 04:50:11;;;;;;;8.90;8.03;;;-0.90;99.90;;;;;;5052017;28;20683;-64
2023/03/02 04:52:37;;;;;;;8.80;8.03;;;-0.90;99.90;;;;;;5041701;28;20186;-64
2023/03/02 04:55:03;;;;;;;8.70;8.10;;;-1.00;99.90;;;;;;5030676;28;20199;-64
2023/03/02 04:57:28;;;;;;;8.47;8.07;;;-1.00;99.90;;;;;;5040114;28;20173;-65
2023/03/02 04:59:54;;;;;;;9.70;9.00;;;-1.00;99.90;;;;;;5044945;28;20184;-65
2023/03/02 05:02:20;;;;;;;9.83;9.07;;;-1.10;99.90;;;;;;5031888;28;20171;-64
2023/03/02 05:04:45;;;;;;;9.47;8.43;;;-1.00;99.90;;;;;;5036128;28;20299;-65
2023/03/02 05:07:11;;;;;;;8.67;8.13;;;-1.00;99.90;;;;;;5051769;28;20171;-65
2023/03/02 05:09:37;;;;;;;9.07;8.37;;;-1.10;99.90;;;;;;5051134;28;20233;-65
2023/03/02 05:12:02;;;;;;;9.60;9.00;;;-1.20;99.90;;;;;;5051534;28;20166;-64
2023/03/02 05:14:29;;;;;;;9.00;8.50;;;-1.20;99.90;;;;;;5043522;28;20206;-65
2023/03/02 05:16:55;;;;;;;9.70;9.20;;;-1.20;99.90;;;;;;5031780;28;20241;-65
2023/03/02 05:19:21;;;;;;;8.97;8.47;;;-1.10;99.90;;;;;;5036734;28;20182;-65
2023/03/02 05:21:46;;;;;;;9.20;8.53;;;-1.10;99.90;;;;;;5051527;28;20648;-64
2023/03/02 05:24:12;;;;;;;9.23;8.63;;;-1.10;99.90;;;;;;5047092;28;20290;-64
2023/03/02 05:26:39;;;;;;;13.53;8.50;;;-1.10;99.90;;;;;;5031683;28;20207;-65
2023/03/02 05:29:04;;;;;;;9.10;8.70;;;-1.20;99.90;;;;;;5046844;28;20190;-64
2023/03/02 05:31:34;;;;;;;9.53;8.97;;;-1.20;99.90;;;;;;5051064;28;20171;-65
2023/03/02 05:34:00;;;;;;;9.23;8.43;;;-1.20;99.90;;;;;;5049216;28;20194;-65
2023/03/02 05:36:26;;;;;;;9.27;8.73;;;-1.30;99.90;;;;;;5051332;28;20547;-65
2023/03/02 05:38:52;;;;;;;9.73;9.03;;;-1.30;99.90;;;;;;5038132;28;20184;-65
2023/03/02 05:41:17;;;;;;;9.50;8.53;;;-1.30;99.90;;;;;;5031165;28;20641;-65
2023/03/02 05:43:43;;;;;;;8.77;8.27;;;-1.40;99.90;;;;;;5042189;28;20230;-64
2023/03/02 05:46:09;;;;;;;8.73;8.20;;;-1.40;99.90;;;;;;5050801;28;20284;-65
2023/03/02 05:48:34;;;;;;;9.30;8.50;;;-1.50;99.90;;;;;;5040355;28;20179;-64
2023/03/02 05:51:00;;;;;;;10.10;9.23;;;-1.50;99.90;;;;;;5030930;28;20202;-64
2023/03/02 05:53:26;;;;;;;9.53;9.03;;;-1.50;99.90;;;;;;5038916;28;20529;-64
2023/03/02 05:55:51;;;;;;;11.07;10.00;;;-1.50;99.90;;;;;;5045648;28;20238;-64
2023/03/02 05:58:18;;;;;;;9.20;8.60;;;-1.50;99.90;;;;;;5029831;28;20194;-64
2023/03/02 06:00:45;;;;;;;10.20;9.40;;;-1.50;99.90;;;;;;5034046;28;20177;-64
2023/03/02 06:03:11;;;;;;;9.17;8.53;;;-1.50;99.90;;;;;;5051040;28;20202;-64
2023/03/02 06:05:37;;;;;;;9.47;8.77;;;-1.50;99.90;;;;;;5048530;28;20742;-64
2023/03/02 06:08:04;;;;;;;10.40;9.67;;;-1.50;99.90;;;;;;5031212;28;20216;-64
2023/03/02 06:10:29;;;;;;;9.23;8.77;;;-1.50;99.90;;;;;;5033086;28;20163;-64
2023/03/02 06:12:55;;;;;;;10.60;9.77;;;-1.50;99.90;;;;;;5046698;28;20172;-64
2023/03/02 06:15:21;;;;;;;10.33;9.63;;;-1.50;99.90;;;;;;5036590;28;20167;-65
2023/03/02 06:17:47;;;;;;;11.10;9.93;;;-1.50;99.90;;;;;;5036480;28;20183;-64
2023/03/02 06:20:14;;;;;;;8.90;8.50;;;-1.50;99.90;;;;;;5034717;28;20176;-64
2023/03/02 06:22:45;;;;;;;10.37;9.77;;;-1.50;99.90;;;;;;5036054;28;20179;-64
2023/03/02 06:25:16;;;;;;;9.53;9.03;;;-1.40;99.90;;;;;;5034903;28;20195;-65
2023/03/02 06:27:43;;;;;;;11.63;10.97;;;-1.40;99.90;;;;;;5051384;28;20582;-64
2023/03/02 06:30:12;;;;;;;10.77;9.97;;;-1.40;99.90;;;;;;5054084;28;20163;-65
2023/03/02 06:32:38;;;;;;;10.70;9.73;;;-1.40;99.90;;;;;;5038906;28;20282;-65
2023/03/02 06:35:05;;;;;;;9.87;9.33;;;-1.40;99.90;;;;;;5034888;28;20267;-64
2023/03/02 06:37:31;;;;;;;14.27;13.17;;;-1.30;99.90;;;;;;5048489;28;20210;-64
2023/03/02 06:39:57;;;;;;;11.60;10.53;;;-1.40;99.90;;;;;;5054331;28;20198;-64
2023/03/02 06:42:24;;;;;;;11.83;10.77;;;-1.40;99.90;;;;;;5041850;28;20222;-64
2023/03/02 06:44:50;;;;;;;19.23;10.13;;;-1.30;99.90;;;;;;5034616;28;20222;-65
2023/03/02 06:47:17;;;;;;;9.63;9.13;;;-1.30;99.90;;;;;;5045182;28;20276;-64
2023/03/02 06:49:42;;;;;;;11.33;10.63;;;-1.30;99.90;;;;;;5047853;28;20182;-64
2023/03/02 06:52:09;;;;;;;10.37;9.87;;;-1.30;99.90;;;;;;5034116;28;20251;-65
2023/03/02 06:54:35;;;;;;;11.17;10.07;;;-1.20;99.90;;;;;;5039113;28;20206;-64
2023/03/02 06:57:01;;;;;;;9.90;9.07;;;-1.10;99.90;;;;;;5054256;28;20163;-64
2023/03/02 06:59:27;;;;;;;9.83;9.17;;;-1.10;99.90;;;;;;5050915;28;20187;-64
2023/03/02 07:01:53;;;;;;;10.00;9.30;;;-1.00;99.90;;;;;;5034300;28;20167;-64
2023/03/02 07:04:18;;;;;;;8.63;8.03;;;-0.90;99.90;;;;;;5035156;28;20207;-64
2023/03/02 07:06:44;;;;;;;11.03;7.50;;;-0.80;99.90;;;;;;5052451;28;20207;-63
2023/03/02 07:09:09;;;;;;;10.30;9.40;;;-0.60;99.90;;;;;;5053880;28;20178;-64
2023/03/02 07:11:35;;;;;;;8.40;7.90;;;-0.50;99.90;;;;;;5034943;28;20246;-65
2023/03/02 07:14:01;;;;;;;10.63;9.93;;;-0.40;99.90;;;;;;5034574;28;20231;-64
2023/03/02 07:16:27;;;;;;;9.33;8.43;;;-0.30;99.90;;;;;;5034295;28;20180;-65
2023/03/02 07:18:53;;;;;;;9.73;8.80;;;-0.20;99.90;;;;;;5049254;28;20178;-65
2023/03/02 07:21:19;;;;;;;9.17;8.13;;;-0.10;99.90;;;;;;5053643;28;20189;-64
2023/03/02 07:23:44;;;;;;;9.20;8.50;;;0.00;99.90;;;;;;5052495;28;20330;-64
2023/03/02 07:26:10;;;;;;;9.90;9.20;;;0.40;99.90;;;;;;5053731;28;20285;-65
2023/03/02 07:28:40;;;;;;;10.77;9.77;;;0.90;99.90;;;;;;5053717;28;20178;-64
2023/03/02 07:31:07;;;;;;;8.40;7.70;;;1.50;99.90;;;;;;5053521;28;20171;-64
2023/03/02 07:33:33;;;;;;;9.40;8.67;;;2.20;99.90;;;;;;5052261;28;20195;-64
2023/03/02 07:36:00;;;;;;;10.27;9.27;;;2.90;99.90;;;;;;5053514;28;20517;-64
2023/03/02 07:38:25;;;;;;;8.37;7.57;;;3.50;99.90;;;;;;5045145;28;20257;-65
2023/03/02 07:40:51;;;;;;;7.20;6.50;;;4.00;99.90;;;;;;5034718;28;20660;-64
2023/03/02 07:43:17;;;;;;;7.50;6.90;;;4.50;99.90;;;;;;5035681;28;20199;-64
2023/03/02 07:45:43;;;;;;;8.30;7.60;;;4.90;99.90;;;;;;5034872;28;20199;-65
2023/03/02 07:48:08;;;;;;;10.57;7.30;;;5.30;99.90;;;;;;5039220;28;20197;-65
2023/03/02 07:50:34;;;;;;;7.13;6.73;;;5.70;99.90;;;;;;5054275;28;20175;-64
2023/03/02 07:53:00;;;;;;;8.70;7.60;;;6.00;99.90;;;;;;5050958;28;20254;-64
2023/03/02 07:55:26;;;;;;;7.83;7.20;;;6.50;99.90;;;;;;5034425;28;20172;-64
2023/03/02 07:57:52;;;;;;;7.50;6.90;;;6.80;99.90;;;;;;5035421;28;20183;-64
2023/03/02 08:00:18;;;;;;;7.60;6.73;;;7.00;99.90;;;;;;5053140;28;20253;-65
2023/03/02 08:02:44;;;;;;;7.70;6.97;;;7.30;99.70;;;;;;5048576;28;20171;-65
2023/03/02 08:05:11;;;;;;;8.03;7.43;;;7.50;96.50;;;;;;5041811;22;20258;-63
2023/03/02 08:07:36;;;;;;;7.60;7.00;;;7.60;94.90;;;;;;5013200;28;20234;-64
2023/03/02 08:10:03;;;;;;;7.50;6.80;;;7.90;94.60;;;;;;5012783;28;20262;-64
2023/03/02 08:12:28;;;;;;;7.33;6.73;;;7.90;90.10;;;;;;5012922;28;20183;-64
2023/03/02 08:14:54;;;;;;;7.50;6.90;;;8.00;89.50;;;;;;5012942;28;20184;-64
2023/03/02 08:17:20;;;;;;;6.53;6.03;;;8.30;90.10;;;;;;5012854;28;20188;-64
2023/03/02 08:19:46;;;;;;;6.20;5.70;;;8.50;86.30;;;;;;5012865;28;20173;-63
2023/03/02 08:22:12;;;;;;;6.47;5.97;;;8.60;86.50;;;;;;5012672;28;20281;-64
2023/03/02 08:24:40;;;;;;;10.87;7.50;;;8.80;87.80;;;;;;5012894;28;20673;-63
2023/03/02 08:27:06;;;;;;;6.93;6.03;;;9.10;85.60;;;;;;5012681;28;20211;-64
2023/03/02 08:29:32;;;;;;;6.30;5.80;;;9.40;82.20;;;;;;5012768;28;20172;-64
2023/03/02 08:31:58;;;;;;;7.30;6.47;;;9.40;81.20;;;;;;5012243;28;20198;-64
2023/03/02 08:34:25;;;;;;;6.80;6.20;;;9.50;81.90;;;;;;5012221;28;20192;-64
2023/03/02 08:36:51;;;;;;;7.83;6.37;;;9.70;78.60;;;;;;5010632;28;20230;-63
2023/03/02 08:39:16;;;;;;;6.97;6.33;;;9.80;78.90;;;;;;5012174;28;20175;-64
2023/03/02 08:41:42;;;;;;;6.40;5.90;;;9.80;77.80;;;;;;5012657;28;20176;-64
2023/03/02 08:44:07;;;;;;;6.53;5.93;;;10.10;79.50;;;;;;5012126;28;20204;-64
2023/03/02 08:46:33;;;;;;;7.50;6.77;;;10.20;78.50;;;;;;5011314;28;20203;-64
2023/03/02 08:48:59;;;;;;;7.23;6.20;;;10.30;76.30;;;;;;5012622;28;20524;-63
2023/03/02 08:51:25;;;;;;;6.53;6.03;;;10.40;74.90;;;;;;5012395;28;20265;-64
2023/03/02 08:53:56;;;;;;;9.23;6.80;;;10.40;73.90;;;;;;5011731;28;20586;-64
2023/03/02 08:56:30;;;;;;;10.23;7.70;;;10.70;75.40;;;;;;5011893;28;20180;-64
2023/03/02 08:59:02;;;;;;;6.73;6.13;;;11.00;75.00;;;;;;5011986;28;20182;-64
2023/03/02 09:01:33;;;;;;;6.40;5.80;;;11.20;70.40;;;;;;5011268;28;20183;-64
2023/03/02 09:03:59;;;;;;;6.47;5.97;;;11.10;69.00;;;;;;5012253;28;20733;-64
2023/03/02 09:06:26;;;;;;;11.20;6.37;;;11.30;71.50;;;;;;5011937;28;20681;-64
2023/03/02 09:08:52;;;;;;;7.73;6.00;;;11.40;68.10;;;;;;5010274;28;20168;-64
2023/03/02 09:11:18;;;;;;;6.60;5.97;;;11.40;64.40;;;;;;5011833;28;20542;-64
2023/03/02 09:13:44;;;;;;;7.73;6.97;;;11.50;67.80;;;;;;5011874;28;20690;-63
2023/03/02 09:16:10;;;;;;;6.90;6.20;;;11.60;64.20;;;;;;5011555;28;20246;-63
2023/03/02 09:18:36;;;;;;;6.90;6.20;;;11.50;62.90;;;;;;5011906;28;20669;-63
2023/03/02 09:21:02;;;;;;;14.90;6.40;;;11.30;65.60;;;;;;5011367;28;20183;-63
2023/03/02 09:23:28;;;;;;;6.47;5.87;;;11.40;66.10;;;;;;5012040;28;20191;-63
2023/03/02 09:25:54;;;;;;;7.03;6.20;;;11.70;63.20;;;;;;5011544;28;20556;-63
2023/03/02 09:28:20;;;;;;;8.03;6.20;;;11.80;64.60;;;;;;5011691;28;20173;-63
2023/03/02 09:31:06;;;;;;;9.30;5.73;;;12.00;62.70;;;;;;5011220;28;20184;-63
2023/03/02 09:33:33;;;;;;;9.40;6.33;;;12.20;62.60;;;;;;5011726;28;20606;-64
2023/03/02 09:36:00;;;;;;;7.17;6.57;;;12.60;62.30;;;;;;5011281;28;20187;-64
2023/03/02 09:38:25;;;;;;;7.10;6.50;;;13.10;62.60;;;;;;5011435;28;20184;-63
2023/03/02 09:41:17;;;;;;;7.13;6.40;;;13.20;58.40;;;;;;5010935;28;20188;-64
2023/03/02 09:44:00;;;;;;;7.53;6.30;;;13.10;57.70;;;;;;5009985;28;20251;-63
2023/03/02 09:46:46;;;;;;;7.07;6.23;;;13.20;58.60;;;;;;5011060;28;20242;-63
2023/03/02 09:49:41;;;;;;;7.07;5.53;;;13.20;57.30;;;;;;5010037;28;20658;-63
2023/03/02 09:52:19;;;;;;;7.40;6.33;;;13.50;57.00;;;;;;5006332;28;20184;-63
2023/03/02 09:54:44;;;;;;;6.10;5.50;;;13.50;55.30;;;;;;5011392;28;20192;-63
2023/03/02 09:57:24;;;;;;;7.07;6.37;;;13.10;55.00;;;;;;5011516;28;20194;-63
2023/03/02 09:59:56;;;;;;;6.33;5.67;;;12.70;55.60;;;;;;5011035;28;20175;-63
2023/03/02 10:02:36;;;;;;;7.73;6.00;;;12.80;56.00;;;;;;5011680;28;20180;-63
2023/03/02 10:05:08;;;;;;;6.57;6.00;;;12.70;54.70;;;;;;5011234;28;20293;-63
2023/03/02 10:07:38;;;;;;;8.20;6.50;;;12.90;54.70;;;;;;5011321;28;20219;-63
2023/03/02 10:10:11;;;;;;;8.27;5.50;;;13.40;56.80;;;;;;5010510;28;20208;-63
2023/03/02 10:12:58;;;;;;;9.63;6.97;;;13.30;54.70;;;;;;5011398;28;20548;-63
2023/03/02 10:15:34;;;;;;;9.40;6.47;;;13.70;55.60;;;;;;5010985;28;20200;-64
2023/03/02 10:18:16;;;;;;;7.97;6.00;;;13.80;53.70;;;;;;4991670;28;20547;-63
2023/03/02 10:20:47;;;;;;;6.47;5.80;;;13.70;52.40;;;;;;4991053;28;20188;-63
2023/03/02 10:23:27;;;;;;;8.37;6.30;;;13.60;51.90;;;;;;4991789;28;20537;-63
2023/03/02 10:26:01;;;;;;;5.97;5.37;;;13.70;52.80;;;;;;5006912;28;20219;-63
2023/03/02 10:28:36;;;;;;;6.97;6.23;;;13.90;53.60;;;;;;5011088;28;20196;-63
2023/03/02 10:31:26;;;;;;;6.40;5.73;;;14.60;54.60;;;;;;5010546;28;20186;-64
2023/03/02 10:33:52;;;;;;;10.80;6.20;;;15.00;49.50;;;;;;5011277;28;20188;-64
2023/03/02 10:36:22;;;;;;;7.20;6.00;;;15.20;51.40;;;;;;5010499;28;20184;-64
2023/03/02 10:38:48;;;;;;;6.70;6.00;;;15.50;50.00;;;;;;5011238;28;20172;-64
2023/03/02 10:41:33;;;;;;;7.53;5.97;;;15.40;49.10;;;;;;5010084;28;20176;-64
2023/03/02 10:44:05;;;;;;;7.70;6.20;;;15.00;47.70;;;;;;5010795;28;20200;-64
2023/03/02 10:46:42;;;;;;;7.10;6.33;;;14.60;47.70;;;;;;5010361;28;20199;-63
2023/03/02 10:49:45;;;;;;;7.07;5.93;;;14.20;48.20;;;;;;5010533;28;20172;-63
2023/03/02 10:52:16;;;;;;;7.53;6.03;;;13.80;49.00;;;;;;4968371;28;20666;-63
2023/03/02 10:54:42;;;;;;;7.13;6.07;;;14.00;48.90;;;;;;4994430;28;20192;-63
2023/03/02 10:57:28;;;;;;;6.60;6.00;;;14.00;50.40;;;;;;5010403;28;20183;-64
2023/03/02 11:00:01;;;;;;;8.27;7.07;;;14.20;49.00;;;;;;5013705;28;20191;-63
2023/03/02 11:02:28;;;;;;;6.47;5.87;;;14.30;48.50;;;;;;5014373;28;20254;-63
2023/03/02 11:05:12;;;;;;;6.23;5.57;;;14.30;49.50;;;;;;5013884;28;20411;-64
2023/03/02 11:07:38;;;;;;;6.97;6.00;;;14.30;47.50;;;;;;5014383;28;20178;-63
2023/03/02 11:10:18;;;;;;;7.47;5.87;;;14.10;48.70;;;;;;5013465;28;20177;-64
2023/03/02 11:12:49;;;;;;;7.00;6.13;;;13.80;47.90;;;;;;5014101;28;20493;-63
2023/03/02 11:15:25;;;;;;;6.67;6.00;;;13.80;49.90;;;;;;5014114;28;20375;-63
2023/03/02 11:18:29;;;;;;;5.67;5.23;;;14.00;49.60;;;;;;5013965;28;20164;-63
2023/03/02 11:21:06;;;;;;;7.20;6.17;;;14.20;48.70;;;;;;5013881;28;20659;-64
2023/03/02 11:23:52;;;;;;;6.70;6.10;;;14.10;48.90;;;;;;5013693;28;20208;-63
2023/03/02 11:26:29;;;;;;;6.43;5.83;;;14.20;50.10;;;;;;5013726;28;20211;-63
2023/03/02 11:29:29;;;;;;;7.50;6.87;;;14.30;48.10;;;;;;5013525;28;20225;-63
2023/03/02 11:32:03;;;;;;;7.60;6.30;;;14.20;46.60;;;;;;5014091;28;20196;-64
2023/03/02 11:34:53;;;;;;;6.97;6.10;;;14.30;49.10;;;;;;5013372;28;20222;-64
2023/03/02 11:37:22;;;;;;;6.10;5.60;;;14.50;47.80;;;;;;4994447;28;20177;-63
2023/03/02 11:39:47;;;;;;;6.53;5.90;;;14.60;48.70;;;;;;5009598;28;20174;-63
2023/03/02 11:42:34;;;;;;;6.60;5.67;;;14.80;47.10;;;;;;5013961;28;20591;-64
2023/03/02 11:45:14;;;;;;;7.37;5.83;;;15.40;47.40;;;;;;5013509;28;20204;-63
2023/03/02 11:48:15;;;;;;;6.13;5.53;;;15.50;48.10;;;;;;5014365;28;20172;-63
2023/03/02 11:50:56;;;;;;;6.30;5.70;;;15.20;44.50;;;;;;5005166;28;20196;-63
2023/03/02 11:53:24;;;;;;;7.73;6.80;;;15.20;46.30;;;;;;5013730;28;20203;-63
2023/03/02 11:55:50;;;;;;;6.43;5.83;;;15.20;48.00;;;;;;5014057;28;20580;-63
2023/03/02 11:58:21;;;;;;;5.73;5.27;;;15.50;47.70;;;;;;5012757;28;20178;-63
2023/03/02 12:00:48;;;;;;;8.43;5.80;;;15.60;45.00;;;;;;5013533;28;20289;-63
2023/03/02 12:03:14;;;;;;;6.73;6.03;;;15.50;45.10;;;;;;5013219;28;20176;-63
2023/03/02 12:05:41;;;;;;;6.50;5.90;;;15.00;45.60;;;;;;5013133;28;20211;-63
2023/03/02 12:08:32;;;;;;;7.17;5.60;;;14.90;46.60;;;;;;5010480;28;20168;-63
2023/03/02 12:10:58;;;;;;;6.00;5.40;;;14.90;45.50;;;;;;4993710;28;20173;-63
2023/03/02 12:13:38;;;;;;;6.93;6.23;;;14.80;44.90;;;;;;5010606;28;20234;-64
2023/03/02 12:16:21;;;;;;;7.27;5.87;;;14.60;45.20;;;;;;5013508;28;20172;-63
2023/03/02 12:18:48;;;;;;;5.80;5.30;;;14.30;46.50;;;;;;5012981;28;20180;-63
2023/03/02 12:21:17;;;;;;;7.90;6.17;;;14.10;45.00;;;;;;5012978;28;20172;-64
2023/03/02 12:23:48;;;;;;;7.80;6.13;;;14.00;45.70;;;;;;5013091;28;20685;-63
2023/03/02 12:26:20;;;;;;;6.33;5.73;;;14.10;47.10;;;;;;5012800;28;20579;-64
2023/03/02 12:29:12;;;;;;;7.47;6.60;;;14.20;45.60;;;;;;5012608;28;20211;-64
2023/03/02 12:31:44;;;;;;;10.90;6.87;;;14.10;45.40;;;;;;5012377;28;20610;-64
2023/03/02 12:34:37;;;;;;;6.43;5.70;;;14.10;45.30;;;;;;5011648;28;20219;-63
2023/03/02 12:37:10;;;;;;;6.70;6.00;;;14.30;45.10;;;;;;5012561;28;20529;-63
2023/03/02 12:39:41;;;;;;;9.53;6.30;;;14.30;46.30;;;;;;5012483;28;20262;-63
2023/03/02 12:42:41;;;;;;;6.17;5.67;;;14.50;45.80;;;;;;5012591;28;20176;-63
2023/03/02 12:45:42;;;;;;;7.07;5.93;;;14.50;47.40;;;;;;5012226;28;20191;-63
2023/03/02 12:48:42;;;;;;;6.07;5.47;;;15.00;45.90;;;;;;4951936;29;20638;-63
2023/03/02 12:51:17;;;;;;;7.97;6.20;;;14.90;44.50;;;;;;5012018;28;20231;-63
2023/03/02 12:53:42;;;;;;;6.23;5.63;;;15.10;45.40;;;;;;5012873;28;20200;-63
2023/03/02 12:56:08;;;;;;;7.17;6.47;;;15.50;46.20;;;;;;5011871;28;20595;-64
2023/03/02 12:58:34;;;;;;;6.23;5.63;;;15.60;44.90;;;;;;5012684;28;20183;-63